Time;durP1;ratioP1;P1;durP2;ratioP2;P2;SDS_P1;SDS_P2;PMS_P1;PMS_P2;Temp;Humidity;BMP_temperature;BMP_pressure;BME280_temperature;BME280_humidity;BME280_pressure;Samples;Min_cycle;Max_cycle;Signal;HPM_P1;HPM_P2
2023/12/18 00:01:10;;;;;;;19.58;12.18;;;8.60;89.10;;;;;;5090294;27;20039;-87
2023/12/18 00:03:36;;;;;;;25.00;12.95;;;8.60;89.10;;;;;;5092843;27;20400;-87
2023/12/18 00:06:02;;;;;;;18.58;11.50;;;8.60;89.10;;;;;;5111974;27;20038;-87
2023/12/18 00:08:28;;;;;;;20.40;12.02;;;8.60;89.20;;;;;;5103499;27;20152;-87
2023/12/18 00:10:53;;;;;;;23.60;12.02;;;8.60;89.20;;;;;;5109827;27;20615;-87
2023/12/18 00:13:19;;;;;;;21.00;13.00;;;8.60;89.20;;;;;;5087845;28;20039;-87
2023/12/18 00:15:45;;;;;;;22.77;11.85;;;8.60;89.30;;;;;;5089983;27;20123;-87
2023/12/18 00:18:10;;;;;;;21.35;12.63;;;8.60;89.30;;;;;;5112466;27;20072;-87
2023/12/18 00:20:36;;;;;;;21.15;12.20;;;8.60;89.30;;;;;;5087614;27;20031;-87
2023/12/18 00:23:02;;;;;;;22.02;11.75;;;8.60;89.30;;;;;;5090839;27;20031;-87
2023/12/18 00:25:28;;;;;;;23.35;11.98;;;8.60;89.30;;;;;;5091303;27;20114;-87
2023/12/18 00:27:53;;;;;;;23.67;13.25;;;8.60;89.30;;;;;;5090573;27;20063;-87
2023/12/18 00:30:19;;;;;;;25.40;12.93;;;8.60;89.40;;;;;;5090400;27;20448;-87
2023/12/18 00:32:44;;;;;;;27.77;14.07;;;9.40;89.90;;;;;;5091587;27;20038;-87
2023/12/18 00:35:10;;;;;;;29.73;12.13;;;8.60;89.40;;;;;;5108523;27;20555;-87
2023/12/18 00:37:35;;;;;;;19.45;12.55;;;8.60;89.50;;;;;;5088333;27;20055;-87
2023/12/18 00:40:01;;;;;;;22.77;13.00;;;8.60;89.50;;;;;;5092744;27;20043;-87
2023/12/18 00:42:27;;;;;;;21.95;11.50;;;8.70;89.60;;;;;;5089655;27;20040;-87
2023/12/18 00:44:52;;;;;;;22.15;12.98;;;8.70;89.60;;;;;;5089006;28;20043;-87
2023/12/18 00:47:18;;;;;;;24.08;12.30;;;8.70;89.70;;;;;;5109932;28;20039;-87
2023/12/18 00:49:44;;;;;;;23.75;12.93;;;8.70;89.70;;;;;;5093261;28;20039;-87
2023/12/18 00:52:10;;;;;;;19.85;12.75;;;8.70;89.60;;;;;;5093541;27;20110;-87
2023/12/18 00:54:35;;;;;;;21.23;12.63;;;8.70;89.70;;;;;;5091939;27;20065;-87
2023/12/18 00:57:01;;;;;;;21.60;12.32;;;8.70;89.70;;;;;;5104286;28;20039;-87
2023/12/18 00:59:26;;;;;;;23.50;12.52;;;8.70;89.70;;;;;;5088982;28;20087;-87
2023/12/18 01:01:52;;;;;;;18.88;11.32;;;8.70;89.70;;;;;;5089453;28;20073;-87
2023/12/18 01:04:17;;;;;;;23.63;13.68;;;8.70;89.70;;;;;;5086692;28;20027;-87
2023/12/18 01:06:43;;;;;;;23.40;13.20;;;8.70;89.70;;;;;;5088678;28;20055;-87
2023/12/18 01:09:09;;;;;;;25.10;12.80;;;8.70;89.70;;;;;;5088159;28;20043;-87
2023/12/18 01:11:35;;;;;;;23.65;12.93;;;8.70;89.70;;;;;;5090218;28;20032;-87
2023/12/18 01:14:01;;;;;;;23.88;12.45;;;8.70;89.70;;;;;;5103536;28;20115;-87
2023/12/18 01:16:26;;;;;;;21.33;11.43;;;8.70;89.70;;;;;;5089243;28;20084;-87
2023/12/18 01:18:52;;;;;;;22.40;12.68;;;8.70;89.70;;;;;;5090115;28;20053;-87
2023/12/18 01:21:17;;;;;;;21.52;12.77;;;8.80;89.80;;;;;;5088534;28;20076;-87
2023/12/18 01:23:43;;;;;;;20.15;11.77;;;8.70;89.70;;;;;;5090043;28;20145;-87
2023/12/18 01:26:09;;;;;;;27.77;14.05;;;8.70;89.70;;;;;;5090071;28;20039;-87
2023/12/18 01:28:34;;;;;;;21.27;11.52;;;8.70;89.80;;;;;;5091860;28;20045;-87
2023/12/18 01:31:00;;;;;;;19.73;11.88;;;8.70;89.80;;;;;;5087458;28;20406;-87
2023/12/18 01:33:26;;;;;;;24.60;13.48;;;8.70;89.80;;;;;;5091744;28;20161;-87
2023/12/18 01:35:51;;;;;;;21.15;12.63;;;8.70;89.80;;;;;;5090008;28;20047;-87
2023/12/18 01:38:17;;;;;;;19.55;12.00;;;8.70;89.80;;;;;;5105837;28;20048;-87
2023/12/18 01:40:44;;;;;;;19.85;11.63;;;8.70;89.90;;;;;;5089479;28;20052;-87
2023/12/18 01:43:27;;;;;;;21.85;11.77;;;8.70;89.90;;;;;;5088282;28;20039;-87
2023/12/18 01:45:59;;;;;;;22.58;11.80;;;8.70;90.10;;;;;;5085725;28;20035;-87
2023/12/18 01:48:26;;;;;;;21.58;11.75;;;8.70;90.00;;;;;;5089269;28;20414;-87
2023/12/18 01:50:56;;;;;;;20.23;11.60;;;8.70;90.00;;;;;;5111269;28;20287;-87
2023/12/18 01:53:29;;;;;;;24.63;12.05;;;8.70;90.00;;;;;;5087045;28;20044;-87
2023/12/18 01:55:56;;;;;;;22.52;11.98;;;8.70;90.00;;;;;;5106377;28;20044;-87
2023/12/18 01:58:22;;;;;;;25.20;12.27;;;8.70;90.00;;;;;;5089185;27;20039;-87
2023/12/18 02:00:48;;;;;;;20.65;12.73;;;8.70;90.00;;;;;;5111901;27;20057;-87
2023/12/18 02:03:16;;;;;;;20.80;12.30;;;8.70;90.00;;;;;;5095107;27;20035;-87
2023/12/18 02:05:44;;;;;;;22.30;11.77;;;8.70;90.00;;;;;;5089354;27;20051;-88
2023/12/18 02:08:10;;;;;;;20.48;12.07;;;8.70;90.00;;;;;;5092916;28;20042;-87
2023/12/18 02:10:37;;;;;;;22.80;11.63;;;8.70;90.00;;;;;;5092656;27;20036;-88
2023/12/18 02:13:03;;;;;;;21.05;11.65;;;8.70;90.00;;;;;;5093537;27;20035;-88
2023/12/18 02:15:28;;;;;;;21.42;12.10;;;8.70;90.00;;;;;;5091535;27;20474;-88
2023/12/18 02:17:54;;;;;;;23.05;12.90;;;8.70;90.00;;;;;;5089762;28;20470;-87
2023/12/18 02:20:20;;;;;;;20.92;12.90;;;8.90;90.10;;;;;;5090256;28;20080;-87
2023/12/18 02:22:45;;;;;;;23.35;13.88;;;8.70;90.00;;;;;;5093986;27;20444;-87
2023/12/18 02:25:11;;;;;;;25.02;12.57;;;8.70;90.10;;;;;;5113971;27;20556;-88
2023/12/18 02:27:37;;;;;;;28.02;13.48;;;8.70;90.10;;;;;;5092726;27;20031;-87
2023/12/18 02:30:03;;;;;;;22.42;13.07;;;8.70;90.10;;;;;;5102864;27;20063;-87
2023/12/18 02:32:29;;;;;;;22.60;12.55;;;8.70;90.10;;;;;;5090468;27;20027;-87
2023/12/18 02:34:55;;;;;;;23.20;12.95;;;8.70;90.10;;;;;;5108174;27;20473;-87
2023/12/18 02:37:22;;;;;;;20.38;13.30;;;8.70;90.10;;;;;;5093138;28;20055;-87
2023/12/18 02:39:48;;;;;;;21.17;13.23;;;8.70;90.10;;;;;;5093369;27;20042;-87
2023/12/18 02:42:13;;;;;;;20.00;13.38;;;8.70;90.10;;;;;;5091744;27;20397;-87
2023/12/18 02:44:39;;;;;;;24.60;13.52;;;8.70;90.10;;;;;;5095095;27;20031;-87
2023/12/18 02:47:05;;;;;;;31.13;14.02;;;8.70;90.10;;;;;;5111148;27;20054;-87
2023/12/18 02:49:30;;;;;;;22.95;14.07;;;8.70;90.10;;;;;;5105437;27;20080;-87
2023/12/18 02:51:56;;;;;;;23.05;12.65;;;8.70;90.10;;;;;;5093061;27;20035;-87
2023/12/18 02:54:21;;;;;;;26.17;14.02;;;8.80;90.10;;;;;;5105740;28;20036;-88
2023/12/18 02:56:47;;;;;;;26.35;14.93;;;8.80;90.10;;;;;;5091333;27;20217;-88
2023/12/18 02:59:12;;;;;;;18.83;12.57;;;8.80;90.10;;;;;;5092594;27;20066;-88
2023/12/18 03:01:38;;;;;;;19.65;13.30;;;8.80;90.10;;;;;;5087667;27;20039;-88
2023/12/18 03:04:04;;;;;;;29.83;14.23;;;8.70;90.10;;;;;;5095012;27;20035;-87
2023/12/18 03:06:29;;;;;;;25.08;13.55;;;8.80;90.20;;;;;;5093898;27;20481;-88
2023/12/18 03:08:55;;;;;;;23.45;13.27;;;8.80;90.20;;;;;;5089580;28;20383;-88
2023/12/18 03:11:20;;;;;;;24.65;13.10;;;8.70;90.10;;;;;;5092401;27;20402;-88
2023/12/18 03:13:46;;;;;;;21.77;12.85;;;8.80;90.20;;;;;;5099086;27;20105;-88
2023/12/18 03:16:12;;;;;;;21.98;11.98;;;9.00;90.30;;;;;;5111133;27;20031;-88
2023/12/18 03:18:37;;;;;;;26.55;13.45;;;8.80;90.20;;;;;;5088965;27;20440;-89
2023/12/18 03:21:03;;;;;;;21.25;13.45;;;8.80;90.20;;;;;;5110095;28;20027;-88
2023/12/18 03:23:29;;;;;;;23.10;12.20;;;8.70;90.40;;;;;;5093491;27;20443;-88
2023/12/18 03:25:54;;;;;;;25.52;14.35;;;8.80;90.20;;;;;;5092330;27;20035;-88
2023/12/18 03:28:20;;;;;;;18.85;11.68;;;8.80;90.20;;;;;;5109058;27;20105;-88
2023/12/18 03:30:45;;;;;;;21.92;12.23;;;8.80;90.20;;;;;;5090175;27;20027;-88
2023/12/18 03:33:11;;;;;;;19.65;13.23;;;8.80;90.20;;;;;;5092069;27;20047;-88
2023/12/18 03:35:37;;;;;;;21.02;12.25;;;8.80;90.20;;;;;;5093474;27;20039;-89
2023/12/18 03:38:03;;;;;;;23.10;12.98;;;8.80;90.20;;;;;;5108547;27;20051;-88
2023/12/18 03:40:28;;;;;;;22.23;13.00;;;8.80;90.20;;;;;;5088845;28;20040;-89
2023/12/18 03:42:54;;;;;;;21.45;11.75;;;8.80;90.20;;;;;;5108387;27;20126;-88
2023/12/18 03:45:20;;;;;;;22.23;12.30;;;8.70;90.20;;;;;;5087400;27;20039;-88
2023/12/18 03:47:45;;;;;;;18.50;11.65;;;8.80;90.20;;;;;;5112134;27;20031;-88
2023/12/18 03:50:11;;;;;;;23.40;12.38;;;8.80;90.20;;;;;;5088701;27;20133;-88
2023/12/18 03:52:36;;;;;;;16.65;11.75;;;8.90;90.30;;;;;;5091710;27;20035;-88
2023/12/18 03:55:02;;;;;;;23.05;11.80;;;8.80;90.20;;;;;;5107655;27;20126;-88
2023/12/18 03:57:28;;;;;;;20.17;12.23;;;8.80;90.20;;;;;;5089853;27;20035;-88
2023/12/18 03:59:53;;;;;;;22.48;11.30;;;8.80;90.20;;;;;;5108245;27;20126;-88
2023/12/18 04:02:19;;;;;;;20.85;11.57;;;8.80;90.20;;;;;;5109616;27;20035;-88
2023/12/18 04:04:45;;;;;;;18.10;11.13;;;8.80;90.20;;;;;;5110194;27;20529;-88
2023/12/18 04:07:10;;;;;;;19.08;10.63;;;8.80;90.20;;;;;;5107845;27;20027;-88
2023/12/18 04:09:39;;;;;;;17.98;11.23;;;8.80;90.20;;;;;;5108210;27;20061;-89
2023/12/18 04:12:05;;;;;;;21.55;11.40;;;8.80;90.30;;;;;;5090832;27;20127;-88
2023/12/18 04:14:31;;;;;;;19.70;11.20;;;8.80;90.20;;;;;;5111843;27;20077;-89
2023/12/18 04:16:56;;;;;;;22.35;12.07;;;9.50;90.40;;;;;;5094688;27;20406;-88
2023/12/18 04:19:22;;;;;;;27.90;11.73;;;8.80;90.20;;;;;;5090296;27;20038;-88
2023/12/18 04:21:47;;;;;;;21.40;11.73;;;8.80;90.20;;;;;;5089420;27;20043;-88
2023/12/18 04:24:13;;;;;;;18.42;11.82;;;8.80;90.20;;;;;;5096988;28;20039;-88
2023/12/18 04:26:38;;;;;;;21.40;12.15;;;9.00;90.30;;;;;;5090619;27;20040;-88
2023/12/18 04:29:04;;;;;;;22.63;12.02;;;8.80;90.20;;;;;;5089930;27;20042;-88
2023/12/18 04:31:31;;;;;;;24.50;11.55;;;8.80;90.20;;;;;;5088414;28;20054;-88
2023/12/18 04:33:57;;;;;;;21.35;13.10;;;8.80;90.30;;;;;;5090581;27;20397;-88
2023/12/18 04:36:22;;;;;;;18.90;11.88;;;8.80;90.30;;;;;;5087280;28;20036;-88
2023/12/18 04:38:48;;;;;;;18.55;10.95;;;8.80;90.30;;;;;;5108055;27;20137;-88
2023/12/18 04:41:21;;;;;;;21.40;11.27;;;8.80;90.30;;;;;;5104882;28;20035;-88
2023/12/18 04:43:46;;;;;;;22.10;12.07;;;8.80;90.30;;;;;;5106787;28;20122;-88
2023/12/18 04:46:12;;;;;;;21.55;11.23;;;8.80;90.30;;;;;;5095155;27;20123;-88
2023/12/18 04:48:38;;;;;;;17.95;11.00;;;8.80;90.30;;;;;;5088213;28;20030;-88
2023/12/18 04:51:04;;;;;;;16.10;9.93;;;8.80;90.30;;;;;;5112850;28;20035;-88
2023/12/18 04:53:32;;;;;;;23.48;12.23;;;8.80;90.30;;;;;;5107976;27;20035;-88
2023/12/18 04:55:58;;;;;;;20.92;11.43;;;8.80;90.30;;;;;;5089521;27;20042;-88
2023/12/18 04:58:23;;;;;;;19.60;11.65;;;8.90;90.30;;;;;;5086130;28;20426;-88
2023/12/18 05:00:49;;;;;;;23.40;10.93;;;8.80;90.30;;;;;;5089124;28;20142;-88
2023/12/18 05:03:14;;;;;;;17.30;10.98;;;8.80;90.30;;;;;;5088682;28;20092;-88
2023/12/18 05:05:40;;;;;;;21.23;10.90;;;8.90;90.30;;;;;;5088253;28;20088;-88
2023/12/18 05:08:06;;;;;;;17.65;10.40;;;9.30;90.50;;;;;;5105295;28;20038;-88
2023/12/18 05:10:32;;;;;;;23.10;11.52;;;8.90;90.40;;;;;;5088695;28;20070;-88
2023/12/18 05:12:57;;;;;;;18.52;10.13;;;8.80;90.30;;;;;;5086995;28;20063;-88
2023/12/18 05:15:24;;;;;;;18.02;9.50;;;8.80;90.30;;;;;;5088991;28;20084;-88
2023/12/18 05:17:50;;;;;;;20.85;11.15;;;8.90;90.40;;;;;;5104283;28;20123;-88
2023/12/18 05:20:15;;;;;;;17.42;10.95;;;8.80;90.30;;;;;;5086758;28;20061;-88
2023/12/18 05:22:41;;;;;;;18.73;11.02;;;8.80;90.30;;;;;;5089095;28;20031;-88
2023/12/18 05:25:09;;;;;;;21.80;11.80;;;8.90;90.40;;;;;;5108926;28;20027;-88
2023/12/18 05:27:35;;;;;;;22.08;10.93;;;8.90;90.40;;;;;;5085144;28;20035;-88
2023/12/18 05:30:01;;;;;;;19.38;10.70;;;8.90;90.40;;;;;;5095319;28;20480;-88
2023/12/18 05:32:27;;;;;;;19.45;11.02;;;8.80;90.30;;;;;;5111628;28;20038;-88
2023/12/18 05:34:53;;;;;;;17.45;10.48;;;8.90;90.40;;;;;;5096469;27;20041;-88
2023/12/18 05:37:18;;;;;;;19.70;11.00;;;8.80;90.30;;;;;;5095143;27;20039;-88
2023/12/18 05:39:44;;;;;;;18.35;9.93;;;8.90;90.40;;;;;;5091079;28;20054;-88
2023/12/18 05:42:10;;;;;;;22.52;11.20;;;8.90;90.40;;;;;;5091114;27;20481;-88
2023/12/18 05:44:36;;;;;;;20.42;12.07;;;8.90;90.40;;;;;;5097604;27;20068;-88
2023/12/18 05:47:02;;;;;;;18.63;10.82;;;8.90;90.40;;;;;;5109894;27;20035;-89
2023/12/18 05:49:28;;;;;;;22.65;11.50;;;8.90;90.40;;;;;;5094078;27;20059;-88
2023/12/18 05:51:54;;;;;;;18.20;10.93;;;8.90;90.40;;;;;;5096084;27;20051;-88
2023/12/18 05:54:20;;;;;;;17.30;10.43;;;8.90;90.40;;;;;;5108478;27;20043;-88
2023/12/18 05:56:45;;;;;;;18.42;11.23;;;8.90;90.40;;;;;;5091933;27;20039;-88
2023/12/18 05:59:11;;;;;;;24.25;11.88;;;8.90;90.40;;;;;;5111120;27;20039;-88
2023/12/18 06:01:37;;;;;;;21.23;11.20;;;8.90;90.40;;;;;;5107412;28;20122;-88
2023/12/18 06:04:02;;;;;;;18.45;10.60;;;8.90;90.40;;;;;;5095680;27;20383;-88
2023/12/18 06:06:28;;;;;;;22.50;11.45;;;8.90;90.40;;;;;;5108290;27;20038;-89
2023/12/18 06:08:53;;;;;;;19.88;10.30;;;8.90;90.40;;;;;;5093334;27;20039;-88
2023/12/18 06:11:19;;;;;;;21.98;11.05;;;8.90;90.40;;;;;;5090100;27;20498;-88
2023/12/18 06:13:45;;;;;;;21.10;11.23;;;8.90;90.40;;;;;;5091087;27;20051;-88
2023/12/18 06:16:10;;;;;;;25.55;12.40;;;8.90;90.40;;;;;;5094285;27;20027;-88
2023/12/18 06:18:37;;;;;;;24.52;12.27;;;8.90;90.40;;;;;;5093679;27;20453;-88
2023/12/18 06:21:03;;;;;;;22.70;11.73;;;8.90;90.40;;;;;;5110281;27;20478;-88
2023/12/18 06:23:29;;;;;;;19.75;11.60;;;8.90;90.40;;;;;;5109276;27;20053;-89
2023/12/18 06:25:55;;;;;;;19.30;12.15;;;8.90;90.40;;;;;;5095400;27;20043;-88
2023/12/18 06:28:21;;;;;;;19.60;11.13;;;8.90;90.40;;;;;;5091077;27;20084;-88
2023/12/18 06:30:46;;;;;;;22.13;12.20;;;8.90;90.40;;;;;;5096853;27;20042;-88
2023/12/18 06:33:12;;;;;;;21.13;12.20;;;8.90;90.40;;;;;;5108488;27;20505;-88
2023/12/18 06:35:37;;;;;;;20.13;12.63;;;9.40;90.50;;;;;;5093153;27;20099;-88
2023/12/18 06:38:03;;;;;;;23.50;12.05;;;8.90;90.40;;;;;;5088521;27;20058;-89
2023/12/18 06:40:29;;;;;;;17.70;12.10;;;8.90;90.40;;;;;;5090487;27;20039;-88
2023/12/18 06:42:54;;;;;;;22.08;13.30;;;9.20;90.40;;;;;;5092975;27;20039;-88
2023/12/18 06:45:20;;;;;;;20.88;12.50;;;8.90;90.40;;;;;;5090599;28;20042;-89
2023/12/18 06:47:45;;;;;;;27.10;12.50;;;8.90;90.40;;;;;;5093095;27;20042;-88
2023/12/18 06:50:11;;;;;;;22.38;13.25;;;8.90;90.40;;;;;;5093732;28;20028;-89
2023/12/18 06:52:37;;;;;;;21.80;13.60;;;8.90;90.30;;;;;;5092303;27;20391;-89
2023/12/18 06:55:03;;;;;;;21.08;12.18;;;8.90;90.30;;;;;;5089080;27;20037;-88
2023/12/18 06:57:28;;;;;;;22.02;12.35;;;8.90;90.30;;;;;;5093589;27;20031;-88
2023/12/18 06:59:54;;;;;;;21.02;12.35;;;8.90;90.30;;;;;;5091342;27;20039;-89
2023/12/18 07:02:20;;;;;;;22.17;13.32;;;8.90;90.30;;;;;;5095305;27;20027;-89
2023/12/18 07:04:45;;;;;;;16.85;11.82;;;8.90;90.40;;;;;;5094363;27;20116;-88
2023/12/18 07:07:11;;;;;;;21.25;11.65;;;8.90;90.40;;;;;;5100965;28;20043;-88
2023/12/18 07:09:36;;;;;;;19.23;11.80;;;8.90;90.40;;;;;;5095969;27;20092;-88
2023/12/18 07:12:02;;;;;;;24.20;12.20;;;8.90;90.40;;;;;;5092037;27;20550;-88
2023/12/18 07:14:28;;;;;;;21.83;12.20;;;8.90;90.30;;;;;;5108522;27;20043;-89
2023/12/18 07:16:53;;;;;;;19.90;12.48;;;8.90;90.40;;;;;;5108538;27;20039;-88
2023/12/18 07:19:19;;;;;;;25.17;13.38;;;8.90;90.60;;;;;;5090582;27;20027;-88
2023/12/18 07:21:45;;;;;;;19.85;11.90;;;8.90;90.40;;;;;;5111679;27;20038;-88
2023/12/18 07:24:10;;;;;;;21.90;11.82;;;8.90;90.40;;;;;;5093159;27;20417;-88
2023/12/18 07:26:36;;;;;;;22.75;13.52;;;8.90;90.60;;;;;;5090763;28;20119;-88
2023/12/18 07:29:02;;;;;;;21.75;12.82;;;8.90;90.40;;;;;;5089591;27;20023;-89
2023/12/18 07:31:28;;;;;;;19.77;11.75;;;8.90;90.40;;;;;;5109572;27;20034;-89
2023/12/18 07:33:53;;;;;;;23.10;12.88;;;8.90;90.40;;;;;;5095389;27;20122;-89
2023/12/18 07:36:19;;;;;;;23.23;12.15;;;8.90;90.40;;;;;;5105662;28;20383;-88
2023/12/18 07:38:45;;;;;;;25.88;13.60;;;8.90;90.40;;;;;;5108106;27;20055;-89
2023/12/18 07:41:11;;;;;;;27.70;13.25;;;8.90;90.40;;;;;;5091006;27;20070;-88
2023/12/18 07:43:37;;;;;;;22.98;12.68;;;8.90;90.40;;;;;;5106653;27;20043;-88
2023/12/18 07:46:03;;;;;;;21.25;12.43;;;8.90;90.40;;;;;;5092639;27;20405;-88
2023/12/18 07:48:31;;;;;;;22.02;13.20;;;8.90;90.40;;;;;;5094570;27;20473;-88
2023/12/18 07:50:57;;;;;;;23.35;13.07;;;9.50;90.60;;;;;;5094260;27;20052;-88
2023/12/18 07:53:23;;;;;;;22.38;13.43;;;8.90;90.40;;;;;;5108185;28;20032;-88
2023/12/18 07:55:49;;;;;;;15.55;12.57;;;9.00;90.50;;;;;;5092917;27;20035;-88
2023/12/18 07:58:14;;;;;;;22.60;12.60;;;8.90;90.40;;;;;;5105469;27;20410;-88
2023/12/18 08:00:40;;;;;;;18.70;12.05;;;8.90;90.40;;;;;;5110466;27;20409;-88
2023/12/18 08:03:05;;;;;;;24.05;12.82;;;8.90;90.40;;;;;;5091708;27;20039;-88
2023/12/18 08:05:31;;;;;;;20.90;12.52;;;9.10;90.50;;;;;;5088126;27;20032;-89
2023/12/18 08:07:57;;;;;;;21.70;13.30;;;9.00;90.50;;;;;;5091481;27;20038;-88
2023/12/18 08:10:22;;;;;;;21.98;14.95;;;9.00;90.50;;;;;;5091097;27;20107;-88
2023/12/18 08:12:49;;;;;;;24.00;14.07;;;8.90;90.40;;;;;;5105737;27;20425;-88
2023/12/18 08:15:14;;;;;;;31.52;17.58;;;8.90;90.40;;;;;;5090600;27;20092;-88
2023/12/18 08:17:40;;;;;;;22.27;16.40;;;9.00;90.40;;;;;;5103553;27;20047;-88
2023/12/18 08:20:07;;;;;;;29.10;16.98;;;9.00;90.40;;;;;;5087238;28;20063;-88
2023/12/18 08:22:34;;;;;;;27.38;17.65;;;9.00;90.30;;;;;;5086624;28;20034;-88
2023/12/18 08:25:01;;;;;;;24.00;17.02;;;8.90;90.10;;;;;;5094941;27;20043;-88
2023/12/18 08:27:26;;;;;;;27.08;19.90;;;8.90;90.00;;;;;;5091433;27;20043;-88
2023/12/18 08:29:52;;;;;;;65.38;38.53;;;8.90;89.80;;;;;;5089818;27;20084;-88
2023/12/18 08:32:18;;;;;;;58.50;29.60;;;8.80;89.60;;;;;;5087027;28;20039;-88
2023/12/18 08:34:43;;;;;;;47.00;24.70;;;8.80;89.50;;;;;;5090165;27;20121;-89
2023/12/18 08:37:09;;;;;;;40.25;23.20;;;8.80;89.40;;;;;;5107253;27;20054;-89
2023/12/18 08:39:34;;;;;;;37.97;23.20;;;8.80;89.40;;;;;;5091196;27;20500;-89
2023/12/18 08:42:00;;;;;;;31.77;21.05;;;8.70;89.30;;;;;;5106397;27;20043;-89
2023/12/18 08:44:25;;;;;;;29.85;20.13;;;8.70;89.20;;;;;;5088847;27;20035;-89
2023/12/18 08:46:51;;;;;;;30.13;21.23;;;9.30;89.50;;;;;;5093357;27;20141;-89
2023/12/18 08:49:17;;;;;;;30.00;19.60;;;8.60;89.00;;;;;;5104514;28;20478;-89
2023/12/18 08:51:42;;;;;;;29.73;19.88;;;8.50;88.90;;;;;;5090668;27;20110;-91
2023/12/18 08:54:08;;;;;;;28.67;20.75;;;8.50;89.00;;;;;;5087483;28;20078;-90
2023/12/18 08:56:35;;;;;;;28.45;19.88;;;8.40;88.90;;;;;;5087693;28;20031;-90
2023/12/18 08:59:00;;;;;;;31.10;20.27;;;8.40;88.80;;;;;;5090234;28;20405;-89
2023/12/18 09:01:26;;;;;;;38.88;24.80;;;8.30;88.80;;;;;;5089413;27;20031;-85
2023/12/18 09:03:51;;;;;;;35.67;22.08;;;8.30;88.90;;;;;;5089762;27;20031;-84
2023/12/18 09:06:17;;;;;;;31.05;21.10;;;8.30;89.20;;;;;;5107493;28;20516;-83
2023/12/18 09:08:43;;;;;;;29.63;19.80;;;8.20;89.50;;;;;;5113524;28;20035;-83
2023/12/18 09:11:09;;;;;;;34.83;20.75;;;8.30;89.80;;;;;;5090990;28;20043;-83
2023/12/18 09:13:36;;;;;;;34.13;21.83;;;8.20;90.00;;;;;;5095621;28;20040;-83
2023/12/18 09:16:05;;;;;;;32.50;22.08;;;8.20;90.10;;;;;;5107251;28;20040;-83
2023/12/18 09:18:31;;;;;;;30.02;21.15;;;8.20;90.30;;;;;;5109480;28;20035;-83
2023/12/18 09:20:57;;;;;;;34.15;22.15;;;8.20;90.40;;;;;;5099960;28;20039;-83
2023/12/18 09:23:22;;;;;;;28.98;20.98;;;8.30;90.50;;;;;;5095994;28;20111;-83
2023/12/18 09:25:48;;;;;;;27.45;20.27;;;8.20;90.60;;;;;;5115106;28;20035;-83
2023/12/18 09:28:16;;;;;;;36.67;24.10;;;8.30;90.60;;;;;;5094771;28;20031;-83
2023/12/18 09:30:42;;;;;;;38.72;26.02;;;8.40;90.70;;;;;;5093424;28;20036;-83
2023/12/18 09:33:08;;;;;;;33.97;22.50;;;8.30;90.70;;;;;;5109797;28;20039;-83
2023/12/18 09:35:33;;;;;;;41.70;29.23;;;8.30;90.80;;;;;;5109640;28;20035;-83
2023/12/18 09:37:59;;;;;;;40.30;26.35;;;8.30;90.80;;;;;;5088877;28;20073;-83
2023/12/18 09:40:25;;;;;;;41.63;24.67;;;8.30;90.80;;;;;;5106591;28;20501;-83
2023/12/18 09:42:56;;;;;;;36.15;23.65;;;8.30;90.90;;;;;;5092148;28;20038;-85
2023/12/18 09:45:23;;;;;;;35.25;22.60;;;8.40;91.00;;;;;;5092095;28;20043;-84
2023/12/18 09:47:53;;;;;;;32.83;21.58;;;8.40;90.90;;;;;;5089790;28;20092;-84
2023/12/18 09:50:18;;;;;;;32.88;22.40;;;8.40;91.00;;;;;;5108314;28;20107;-84
2023/12/18 09:53:14;;;;;;;36.95;22.80;;;8.40;91.00;;;;;;5089925;28;20430;-84
2023/12/18 09:55:40;;;;;;;;;;;8.40;90.90;;;;;;5101478;28;20494;-84
2023/12/18 09:58:06;;;;;;;34.25;21.98;;;8.40;90.90;;;;;;5104454;28;19954;-83
2023/12/18 10:00:32;;;;;;;30.13;22.48;;;8.40;91.00;;;;;;5091690;28;20106;-83
2023/12/18 10:02:59;;;;;;;33.67;21.50;;;8.40;91.00;;;;;;5104791;28;20043;-84
2023/12/18 10:05:26;;;;;;;33.17;21.60;;;8.50;91.00;;;;;;5107309;28;20120;-84
2023/12/18 10:07:53;;;;;;;29.25;20.80;;;8.50;91.00;;;;;;5088186;28;20027;-84
2023/12/18 10:10:19;;;;;;;33.22;22.08;;;8.50;91.00;;;;;;5106249;28;20063;-84
2023/12/18 10:12:46;;;;;;;30.65;21.88;;;8.50;91.00;;;;;;5107471;28;20051;-84
2023/12/18 10:15:12;;;;;;;31.17;21.08;;;8.50;91.00;;;;;;5107388;28;20106;-84
2023/12/18 10:17:41;;;;;;;34.58;21.67;;;8.50;91.00;;;;;;5094156;28;20070;-84
2023/12/18 10:20:08;;;;;;;30.77;21.90;;;8.50;91.00;;;;;;5114777;27;20026;-84
2023/12/18 10:22:34;;;;;;;30.55;21.67;;;8.60;91.10;;;;;;5099305;27;20032;-84
2023/12/18 10:25:01;;;;;;;33.72;20.67;;;8.60;91.00;;;;;;5096154;27;20104;-84
2023/12/18 10:27:31;;;;;;;35.22;21.77;;;8.60;91.00;;;;;;5094427;27;20059;-84
2023/12/18 10:30:00;;;;;;;35.58;24.33;;;8.60;91.00;;;;;;5112257;27;20047;-84
2023/12/18 10:32:27;;;;;;;30.55;20.67;;;9.20;91.20;;;;;;5109420;28;20031;-84
2023/12/18 10:34:54;;;;;;;32.67;22.88;;;8.60;91.00;;;;;;5110798;27;20054;-84
2023/12/18 10:37:22;;;;;;;35.33;22.80;;;8.70;91.00;;;;;;5094110;27;20066;-85
2023/12/18 10:39:51;;;;;;;29.63;22.52;;;8.70;91.00;;;;;;5109703;27;20126;-84
2023/12/18 10:42:37;;;;;;;31.90;21.67;;;8.70;91.10;;;;;;5110066;27;20057;-84
2023/12/18 10:45:06;;;;;;;30.10;22.15;;;8.70;91.00;;;;;;5094020;27;20053;-84
2023/12/18 10:47:32;;;;;;;35.47;23.67;;;8.70;91.10;;;;;;5097927;27;20039;-84
2023/12/18 10:50:00;;;;;;;36.08;23.88;;;9.20;91.20;;;;;;5098392;27;20110;-84
2023/12/18 10:52:28;;;;;;;32.65;22.90;;;8.80;91.10;;;;;;5115278;27;20087;-84
2023/12/18 10:54:55;;;;;;;31.60;23.45;;;8.80;91.10;;;;;;5117374;27;20054;-84
2023/12/18 10:57:23;;;;;;;31.67;22.90;;;8.80;91.10;;;;;;5114464;27;20038;-87
2023/12/18 10:59:50;;;;;;;33.72;24.02;;;8.80;91.10;;;;;;5109141;27;20398;-85
2023/12/18 11:02:16;;;;;;;37.50;23.77;;;8.80;91.10;;;;;;5090058;28;20032;-85
2023/12/18 11:04:48;;;;;;;36.90;22.95;;;8.80;91.10;;;;;;5110445;27;20047;-85
2023/12/18 11:07:18;;;;;;;36.30;24.50;;;8.90;91.10;;;;;;5091224;27;20483;-87
2023/12/18 11:09:45;;;;;;;35.05;22.27;;;9.30;91.20;;;;;;5090085;28;20036;-87
2023/12/18 11:12:14;;;;;;;30.48;22.23;;;8.90;91.00;;;;;;5087260;27;20487;-86
2023/12/18 11:15:08;;;;;;;36.78;24.85;;;8.90;91.00;;;;;;5111224;27;20378;-86
2023/12/18 11:17:46;;;;;;;35.25;22.60;;;9.00;91.00;;;;;;5104558;27;20070;-87
2023/12/18 11:20:40;;;;;;;31.17;22.85;;;9.00;91.00;;;;;;5095353;28;20079;-87
2023/12/18 11:23:06;;;;;;;35.47;24.85;;;9.00;90.90;;;;;;5089790;28;20043;-87
2023/12/18 11:25:36;;;;;;;36.83;24.67;;;9.00;90.90;;;;;;5091533;27;20113;-87
2023/12/18 11:28:04;;;;;;;36.30;26.17;;;9.00;90.90;;;;;;5107775;27;20110;-87
2023/12/18 11:30:35;;;;;;;30.95;22.52;;;9.00;90.90;;;;;;5089659;27;20036;-86
2023/12/18 11:33:04;;;;;;;27.98;21.23;;;9.00;90.90;;;;;;5106161;27;20123;-86
2023/12/18 11:35:32;;;;;;;30.70;20.70;;;9.10;90.90;;;;;;5087204;27;20061;-86
2023/12/18 11:38:12;;;;;;;27.10;21.25;;;9.10;90.90;;;;;;5089170;27;20043;-86
2023/12/18 11:40:40;;;;;;;32.15;20.77;;;9.10;90.90;;;;;;5089978;27;20114;-86
2023/12/18 11:43:32;;;;;;;30.05;21.33;;;9.10;90.80;;;;;;5109545;27;20035;-86
2023/12/18 11:45:58;;;;;;;32.42;22.42;;;9.20;90.80;;;;;;5095242;27;20080;-86
2023/12/18 11:48:24;;;;;;;30.67;20.88;;;9.20;90.80;;;;;;5088175;27;20401;-89
2023/12/18 11:50:51;;;;;;;33.50;21.85;;;9.10;90.70;;;;;;5095224;28;20039;-89
2023/12/18 11:53:23;;;;;;;30.60;22.20;;;9.20;90.70;;;;;;5097937;27;20395;-90
2023/12/18 11:55:50;;;;;;;33.03;22.13;;;9.20;90.60;;;;;;5093198;28;20047;-90
2023/12/18 11:58:24;;;;;;;35.63;24.20;;;9.20;90.60;;;;;;5091642;27;20031;-89
2023/12/18 12:00:50;;;;;;;36.22;22.65;;;9.20;90.60;;;;;;5108245;27;20057;-90
2023/12/18 12:03:17;;;;;;;25.60;19.35;;;9.20;90.50;;;;;;5089085;27;20039;-90
2023/12/18 12:05:44;;;;;;;35.63;21.85;;;9.30;90.50;;;;;;5091934;27;20371;-89
2023/12/18 12:08:10;;;;;;;29.33;20.30;;;9.20;90.50;;;;;;5089461;27;20040;-90
2023/12/18 12:10:40;;;;;;;29.90;19.48;;;9.20;90.50;;;;;;5091471;27;20028;-90
2023/12/18 12:13:06;;;;;;;36.13;20.40;;;9.30;90.50;;;;;;5091365;27;20047;-90
2023/12/18 12:15:32;;;;;;;29.00;20.38;;;9.70;90.60;;;;;;5090724;27;20498;-89
2023/12/18 12:18:03;;;;;;;25.20;19.27;;;9.70;90.60;;;;;;5108433;27;20043;-90
2023/12/18 12:20:29;;;;;;;26.25;19.25;;;9.30;90.50;;;;;;5091502;27;20115;-89
2023/12/18 12:22:55;;;;;;;29.05;18.88;;;9.30;90.50;;;;;;5088776;28;20062;-89
2023/12/18 12:25:20;;;;;;;26.38;18.58;;;9.30;90.50;;;;;;5090169;27;20046;-89
2023/12/18 12:27:46;;;;;;;25.17;18.48;;;9.30;90.50;;;;;;5088706;27;20619;-90
2023/12/18 12:30:12;;;;;;;25.73;17.88;;;9.30;90.50;;;;;;5088564;27;20498;-90
2023/12/18 12:32:39;;;;;;;27.23;18.65;;;9.30;90.40;;;;;;5090941;27;20405;-89
2023/12/18 12:35:07;;;;;;;25.48;17.90;;;9.30;90.60;;;;;;5092697;27;20045;-89